Time;durP1;ratioP1;P1;durP2;ratioP2;P2;SDS_P1;SDS_P2;PMS_P1;PMS_P2;Temp;Humidity;BMP_temperature;BMP_pressure;BME280_temperature;BME280_humidity;BME280_pressure;Samples;Min_cycle;Max_cycle;Signal;HPM_P1;HPM_P2
2020/12/20 00:02:24;;;;;;;31.87;18.53;;;;;;;3.82;77.88;101659.76;1676742;85;21793;-89
2020/12/20 00:04:51;;;;;;;29.53;16.47;;;;;;;3.80;78.00;101661.67;1706199;83;21201;-88
2020/12/20 00:07:21;;;;;;;27.10;15.33;;;;;;;3.86;77.67;101662.08;1723526;83;21711;-87
2020/12/20 00:09:48;;;;;;;28.13;14.73;;;;;;;3.95;77.27;101667.14;1719546;83;21224;-88
2020/12/20 00:12:18;;;;;;;27.07;14.53;;;;;;;3.95;77.15;101678.17;1719805;83;21759;-89
2020/12/20 00:14:46;;;;;;;30.87;16.23;;;;;;;3.83;77.37;101670.69;1725637;83;21356;-87
2020/12/20 00:17:15;;;;;;;28.77;15.60;;;;;;;3.70;77.66;101676.84;1725015;81;21182;-89
2020/12/20 00:19:44;;;;;;;27.70;14.73;;;;;;;3.65;77.94;101675.48;1707768;83;21668;-88
2020/12/20 00:22:13;;;;;;;30.67;16.43;;;;;;;3.73;77.92;101678.88;1728572;83;21218;-87
2020/12/20 00:24:41;;;;;;;26.17;15.33;;;;;;;3.87;77.49;101677.42;1726565;82;21168;-88
2020/12/20 00:27:11;;;;;;;27.50;14.27;;;;;;;3.87;77.37;101674.78;1724496;81;21496;-87
2020/12/20 00:29:40;;;;;;;27.03;13.80;;;;;;;3.82;77.61;101671.63;1727859;82;21159;-87
2020/12/20 00:32:11;;;;;;;27.57;14.00;;;;;;;3.77;77.69;101669.80;1722171;81;21395;-85
2020/12/20 00:34:39;;;;;;;31.23;16.10;;;;;;;3.72;77.68;101666.67;1720802;82;21194;-87
2020/12/20 00:37:06;;;;;;;24.93;13.63;;;;;;;3.78;77.59;101667.53;1715193;81;21092;-84
2020/12/20 00:39:37;;;;;;;28.57;16.23;;;;;;;3.79;77.47;101675.83;1723619;81;21151;-88
2020/12/20 00:42:28;;;;;;;23.73;13.27;;;;;;;3.66;77.82;101664.83;1715603;82;21308;-88
2020/12/20 00:44:56;;;;;;;21.63;12.20;;;;;;;3.60;78.17;101677.14;1691505;83;21244;-87
2020/12/20 00:47:25;;;;;;;25.07;14.90;;;;;;;3.60;78.13;101666.60;1669893;84;21173;-86
2020/12/20 00:49:58;;;;;;;28.47;15.33;;;;;;;3.69;78.02;101667.27;1669034;84;21225;-88
2020/12/20 00:52:40;;;;;;;23.83;15.17;;;;;;;2.50;77.87;101454.02;1776339;80;27812;-85
2020/12/20 00:55:08;;;;;;;29.83;15.47;;;;;;;3.64;78.20;101661.95;1720097;82;21688;-85
2020/12/20 00:57:36;;;;;;;25.93;13.53;;;;;;;3.61;78.42;101668.27;1712580;82;21135;-86
2020/12/20 01:00:04;;;;;;;25.87;14.83;;;;;;;3.68;78.36;101667.36;1750949;82;21119;-84
2020/12/20 01:02:32;;;;;;;26.00;14.73;;;;;;;3.83;78.01;101666.73;1718920;82;21179;-85
2020/12/20 01:04:59;;;;;;;25.20;13.80;;;;;;;3.89;77.71;101668.91;1744610;82;21183;-84
2020/12/20 01:09:31;;;;;;;28.97;15.03;;;;;;;3.83;77.94;101663.61;1817516;77;22405;-88
2020/12/20 01:12:27;;;;;;;29.83;14.07;;;;;;;3.77;78.07;101661.42;1798672;78;23740;-89
2020/12/20 01:15:09;;;;;;;25.53;14.13;;;;;;;3.74;78.00;101668.72;1779077;79;21187;-88
2020/12/20 01:17:45;;;;;;;23.52;13.43;;;;;;;3.81;77.70;101669.96;1777226;79;21199;-89
2020/12/20 01:20:17;;;;;;;25.50;13.60;;;;;;;3.76;77.82;101668.13;1748804;80;21195;-89
2020/12/20 01:22:49;;;;;;;20.00;12.97;;;;;;;3.64;78.11;101664.11;1782706;79;21204;-88
2020/12/20 01:25:19;;;;;;;21.20;12.73;;;;;;;3.56;78.36;101669.09;1742100;80;21187;-84
2020/12/20 01:27:49;;;;;;;24.27;14.67;;;;;;;3.53;78.48;101673.74;1763545;80;21155;-87
2020/12/20 01:30:16;;;;;;;20.67;11.83;;;;;;;3.59;78.35;101671.49;1765566;79;21187;-86
2020/12/20 01:32:45;;;;;;;21.70;12.50;;;;;;;3.63;78.31;101664.21;1719876;82;21480;-85
2020/12/20 01:35:12;;;;;;;22.97;12.90;;;;;;;3.57;78.39;101668.61;1701108;82;21207;-87
2020/12/20 01:37:42;;;;;;;25.50;12.50;;;;;;;3.49;78.61;101681.03;1731488;82;21228;-86
2020/12/20 01:40:11;;;;;;;18.80;11.30;;;;;;;3.56;78.64;101678.33;1725545;82;21297;-85
2020/12/20 01:42:38;;;;;;;22.17;12.67;;;;;;;3.62;78.38;101673.92;1703481;82;21204;-85
2020/12/20 01:45:08;;;;;;;21.27;13.23;;;;;;;3.60;78.55;101680.23;1717903;82;21374;-85
2020/12/20 01:47:39;;;;;;;21.13;11.40;;;;;;;3.57;78.76;101676.04;1720725;82;21198;-86
2020/12/20 01:50:08;;;;;;;22.00;12.27;;;;;;;3.56;78.77;101677.46;1717283;81;21357;-85
2020/12/20 01:52:35;;;;;;;25.53;13.40;;;;;;;3.56;78.69;101682.28;1723069;81;21241;-85
2020/12/20 01:55:04;;;;;;;22.50;12.50;;;;;;;3.62;78.50;101678.36;1722206;82;21869;-87
2020/12/20 01:57:48;;;;;;;17.43;10.73;;;;;;;3.66;78.63;101674.06;1911000;73;23491;-84
2020/12/20 02:00:17;;;;;;;19.63;11.90;;;;;;;3.56;78.65;101679.64;1818328;77;21140;-83
2020/12/20 02:02:55;;;;;;;20.80;11.10;;;;;;;3.48;78.88;101677.56;1854817;75;21221;-84
2020/12/20 02:05:22;;;;;;;20.67;11.57;;;;;;;3.48;78.92;101678.01;1816685;77;21192;-85
2020/12/20 02:07:50;;;;;;;17.17;10.57;;;;;;;3.58;78.73;101678.19;1807343;77;21187;-84
2020/12/20 02:10:18;;;;;;;21.23;11.50;;;;;;;3.62;78.73;101687.59;1762606;80;21328;-84
2020/12/20 02:12:47;;;;;;;20.23;11.10;;;;;;;3.57;78.79;101685.27;1803405;77;21399;-85
2020/12/20 02:15:16;;;;;;;21.37;12.80;;;;;;;3.53;78.89;101680.34;1812672;77;21224;-84
2020/12/20 02:17:45;;;;;;;25.03;12.50;;;;;;;3.49;78.97;101681.86;1774860;79;21171;-85
2020/12/20 02:20:14;;;;;;;19.23;12.27;;;;;;;3.54;78.89;101685.95;1801740;77;21301;-85
2020/12/20 02:23:17;;;;;;;21.20;12.20;;;;;;;3.74;78.60;101676.63;1805999;75;22936;-83
2020/12/20 02:25:50;;;;;;;19.83;11.83;;;;;;;3.65;78.50;101679.44;1761771;80;21516;-85
2020/12/20 02:28:19;;;;;;;18.80;10.33;;;;;;;3.55;78.73;101683.22;1757490;80;21571;-87
2020/12/20 02:30:48;;;;;;;19.33;11.47;;;;;;;3.47;78.91;101684.25;1793271;79;21302;-87
2020/12/20 02:33:20;;;;;;;15.13;9.50;;;;;;;3.48;78.89;101679.33;1732755;81;21195;-85
2020/12/20 02:35:48;;;;;;;21.60;12.37;;;;;;;3.58;78.69;101685.64;1727425;81;21157;-86
2020/12/20 02:38:16;;;;;;;19.90;11.63;;;;;;;3.59;78.63;101684.67;1668054;84;21238;-84
2020/12/20 02:40:47;;;;;;;19.63;10.10;;;;;;;3.55;78.90;101680.58;1663819;84;21280;-85
2020/12/20 02:43:15;;;;;;;18.67;11.07;;;;;;;3.52;78.96;101684.74;1679606;84;21380;-85
2020/12/20 02:45:43;;;;;;;21.90;11.77;;;;;;;3.47;78.92;101681.61;1692114;83;21766;-85
2020/12/20 02:48:10;;;;;;;22.00;12.83;;;;;;;3.56;78.78;101682.73;1755603;80;21776;-86
2020/12/20 02:50:39;;;;;;;22.53;13.00;;;;;;;3.58;78.62;101685.64;1747103;80;21713;-88
2020/12/20 02:53:07;;;;;;;16.97;11.97;;;;;;;3.51;78.73;101693.62;1754853;80;21222;-87
2020/12/20 02:55:36;;;;;;;21.30;12.70;;;;;;;3.44;78.94;101686.61;1728884;81;21332;-86
2020/12/20 02:58:06;;;;;;;16.77;10.07;;;;;;;3.44;79.12;101690.56;1725575;82;21220;-87
2020/12/20 03:00:38;;;;;;;22.73;12.80;;;;;;;3.50;78.70;101695.42;1701942;81;21179;-84
2020/12/20 03:03:07;;;;;;;20.87;11.53;;;;;;;3.57;78.45;101695.81;1721508;81;21329;-85
2020/12/20 03:05:36;;;;;;;21.00;12.50;;;;;;;3.59;78.37;101689.95;1727880;81;21099;-86
2020/12/20 03:08:04;;;;;;;23.00;13.50;;;;;;;3.53;78.63;101688.25;1673473;84;21203;-84
2020/12/20 03:10:32;;;;;;;15.77;9.70;;;;;;;3.49;78.68;101686.30;1654028;84;21208;-84
2020/12/20 03:13:00;;;;;;;19.83;11.93;;;;;;;3.51;78.71;101694.94;1687374;84;21160;-84
2020/12/20 03:15:29;;;;;;;24.43;14.63;;;;;;;3.56;78.48;101686.69;1634573;85;21248;-84
2020/12/20 03:17:56;;;;;;;26.23;13.87;;;;;;;3.54;78.51;101689.42;1684015;83;21374;-85
2020/12/20 03:20:27;;;;;;;28.20;15.27;;;;;;;3.47;78.86;101699.58;1669029;83;21239;-83
2020/12/20 03:22:59;;;;;;;24.03;11.83;;;;;;;3.43;79.12;101697.29;1678932;83;21671;-83
2020/12/20 03:26:08;;;;;;;19.67;14.35;;;;;;;3.47;79.02;101696.11;1788926;78;28268;-84
2020/12/20 03:28:40;;;;;;;20.10;12.37;;;;;;;3.63;78.46;101699.32;1764938;80;21184;-83
2020/12/20 03:31:40;;;;;;;19.17;11.23;;;;;;;3.72;77.97;101698.31;1815672;77;22907;-87
2020/12/20 03:34:26;;;;;;;19.83;10.57;;;;;;;3.54;78.50;101707.05;1806663;78;21156;-86
2020/12/20 03:36:57;;;;;;;21.83;11.87;;;;;;;3.56;78.47;101713.05;1790094;78;21096;-87
2020/12/20 03:39:26;;;;;;;21.73;13.37;;;;;;;3.65;78.41;101712.41;1776279;78;21938;-86
2020/12/20 03:41:56;;;;;;;22.80;11.53;;;;;;;3.69;78.46;101721.32;1789550;78;21187;-87
2020/12/20 03:44:24;;;;;;;22.60;13.10;;;;;;;3.67;78.56;101717.95;1780424;78;21226;-90
2020/12/20 03:46:55;;;;;;;20.33;12.63;;;;;;;3.63;78.45;101723.05;1793514;78;22189;-89
2020/12/20 03:49:25;;;;;;;20.70;12.50;;;;;;;3.60;78.59;101724.61;1777474;78;21169;-87
2020/12/20 03:51:56;;;;;;;19.17;12.27;;;;;;;3.65;78.31;101730.38;1767918;80;21144;-89
2020/12/20 03:54:31;;;;;;;19.10;12.43;;;;;;;3.79;77.95;101734.69;1774734;78;21574;-91
2020/12/20 03:57:00;;;;;;;24.00;13.17;;;;;;;3.78;77.66;101735.63;1751507;81;21217;-88
2020/12/20 03:59:30;;;;;;;18.17;11.80;;;;;;;3.65;77.98;101736.97;1748527;81;21324;-89
2020/12/20 04:02:00;;;;;;;21.70;12.77;;;;;;;3.60;78.28;101739.11;1720857;81;21317;-85
2020/12/20 04:04:30;;;;;;;21.10;11.80;;;;;;;3.54;78.38;101743.47;1759669;81;21641;-87
2020/12/20 04:06:57;;;;;;;21.27;12.30;;;;;;;3.59;78.46;101745.32;1725511;81;21177;-88
2020/12/20 04:09:25;;;;;;;21.10;12.03;;;;;;;3.72;78.13;101753.70;1705291;83;21176;-86
2020/12/20 04:11:57;;;;;;;24.83;14.13;;;;;;;3.63;78.20;101752.54;1717399;81;21176;-89
2020/12/20 04:14:25;;;;;;;29.70;15.83;;;;;;;3.44;78.67;101749.88;1694348;83;21225;-85
2020/12/20 04:16:52;;;;;;;20.30;11.33;;;;;;;3.35;79.17;101755.78;1723985;82;21212;-90
2020/12/20 04:19:21;;;;;;;27.30;15.30;;;;;;;3.39;79.28;101755.97;1706372;83;21217;-85
2020/12/20 04:21:51;;;;;;;25.93;13.17;;;;;;;3.49;78.90;101755.67;1686274;83;21279;-89
2020/12/20 04:24:20;;;;;;;20.67;12.57;;;;;;;3.50;78.94;101763.97;1712146;83;21137;-86
2020/12/20 04:26:48;;;;;;;26.83;14.87;;;;;;;3.43;79.15;101764.50;1716200;83;21824;-85
2020/12/20 04:29:25;;;;;;;27.50;14.13;;;;;;;3.33;79.33;101781.41;1705987;79;21356;-87
2020/12/20 04:31:54;;;;;;;25.43;15.03;;;;;;;3.33;79.53;101781.89;1699064;79;21164;-86
2020/12/20 04:34:22;;;;;;;30.10;15.43;;;;;;;3.34;79.61;101784.91;1684313;82;21178;-86
2020/12/20 04:36:51;;;;;;;18.77;10.93;;;;;;;3.30;79.97;101779.84;1679125;84;21218;-86
2020/12/20 04:39:27;;;;;;;21.57;12.50;;;;;;;3.31;80.03;101777.58;1833283;77;22909;-84
2020/12/20 04:41:55;;;;;;;22.70;11.83;;;;;;;3.29;79.94;101789.99;1800151;78;21154;-83
2020/12/20 04:44:23;;;;;;;20.43;11.67;;;;;;;3.39;79.54;101793.31;1816932;78;21166;-87
2020/12/20 04:46:52;;;;;;;23.33;12.43;;;;;;;3.40;79.52;101788.43;1817633;78;21134;-85
2020/12/20 04:49:30;;;;;;;21.57;12.03;;;;;;;3.32;79.79;101786.33;1814264;78;21150;-87
2020/12/20 04:51:59;;;;;;;22.00;11.43;;;;;;;2.92;80.11;101724.03;1780218;78;21126;-85
2020/12/20 04:54:26;;;;;;;19.27;12.10;;;;;;;3.40;80.04;101781.84;1806498;77;21209;-87
2020/12/20 04:56:59;;;;;;;22.47;11.37;;;;;;;3.56;79.54;101786.88;1800503;78;21267;-87
2020/12/20 04:59:31;;;;;;;19.47;12.10;;;;;;;3.58;79.14;101784.52;1815249;76;21458;-87
2020/12/20 05:02:00;;;;;;;23.60;13.90;;;;;;;3.50;79.39;101780.23;1809207;78;21165;-84
2020/12/20 05:04:28;;;;;;;19.20;12.83;;;;;;;3.48;79.53;101782.14;1800469;78;21168;-86
2020/12/20 05:06:57;;;;;;;21.07;11.30;;;;;;;3.47;79.62;101782.63;1736397;80;21650;-85
2020/12/20 05:09:55;;;;;;;19.40;10.83;;;;;;;3.63;79.24;101783.70;1815982;77;23031;-86
2020/12/20 05:12:27;;;;;;;18.13;10.60;;;;;;;3.71;78.94;101788.44;1736979;80;21156;-83
2020/12/20 05:14:57;;;;;;;17.80;10.50;;;;;;;3.72;78.67;101791.45;1727964;80;21194;-86
2020/12/20 05:17:26;;;;;;;15.80;10.60;;;;;;;3.62;78.81;101791.74;1735931;80;21604;-86
2020/12/20 05:19:55;;;;;;;19.03;10.97;;;;;;;3.54;79.07;101786.98;1737092;80;21178;-84
2020/12/20 05:22:24;;;;;;;18.53;10.17;;;;;;;3.50;79.27;101785.06;1746190;81;21756;-86
2020/12/20 05:24:56;;;;;;;20.90;11.37;;;;;;;3.59;79.29;101782.23;1667140;82;21269;-87
2020/12/20 05:27:28;;;;;;;17.03;10.60;;;;;;;3.76;78.78;101785.00;1731081;80;21272;-87
2020/12/20 05:30:15;;;;;;;16.70;10.47;;;;;;;3.82;78.63;101787.20;1736327;80;21142;-86
2020/12/20 05:33:29;;;;;;;17.07;10.10;;;;;;;3.85;78.61;101780.88;1794726;77;22829;-86
2020/12/20 05:36:00;;;;;;;19.27;11.63;;;;;;;3.76;78.56;101791.59;1754052;80;21500;-85
2020/12/20 05:38:27;;;;;;;17.53;9.50;;;;;;;3.72;78.51;101799.84;1728871;81;21334;-86
2020/12/20 05:40:55;;;;;;;16.57;9.27;;;;;;;3.73;78.26;101798.88;1715171;81;21184;-86
2020/12/20 05:43:23;;;;;;;18.83;11.47;;;;;;;3.79;77.95;101797.16;1704296;81;21191;-86
2020/12/20 05:45:51;;;;;;;19.77;12.40;;;;;;;3.75;78.04;101798.30;1738820;81;21405;-85
2020/12/20 05:48:25;;;;;;;17.53;10.20;;;;;;;3.69;78.41;101801.75;1729525;81;21185;-86
2020/12/20 05:51:02;;;;;;;19.07;12.23;;;;;;;3.67;78.48;101810.25;1740702;81;21149;-86
2020/12/20 05:53:30;;;;;;;14.33;9.80;;;;;;;3.65;78.56;101805.53;1714541;81;21712;-86
2020/12/20 05:56:00;;;;;;;17.17;11.80;;;;;;;3.57;78.17;101780.67;1696414;83;21172;-86
2020/12/20 05:58:33;;;;;;;16.67;10.30;;;;;;;3.83;77.69;101813.95;1738077;81;21191;-86
2020/12/20 06:01:01;;;;;;;12.70;8.73;;;;;;;3.85;77.64;101813.86;1735182;81;21136;-85
2020/12/20 06:03:28;;;;;;;13.73;10.03;;;;;;;3.79;77.71;101816.45;1666686;84;21232;-88
2020/12/20 06:06:02;;;;;;;14.53;9.27;;;;;;;3.70;77.68;101820.56;1698275;83;21128;-87
2020/12/20 06:08:32;;;;;;;13.93;9.47;;;;;;;3.62;77.88;101817.63;1670756;85;21109;-87
2020/12/20 06:11:02;;;;;;;11.70;7.67;;;;;;;3.68;77.55;101821.63;1668231;84;21214;-86
2020/12/20 06:13:31;;;;;;;11.10;7.90;;;;;;;3.77;77.01;101818.80;1668066;85;21234;-86
2020/12/20 06:15:58;;;;;;;12.87;7.77;;;;;;;3.73;76.68;101819.53;1669924;84;21217;-87
2020/12/20 06:18:29;;;;;;;12.43;9.20;;;;;;;3.62;77.03;101824.70;1663285;84;21355;-85
2020/12/20 06:20:58;;;;;;;15.63;8.33;;;;;;;3.55;77.25;101827.39;1677837;84;21694;-88
2020/12/20 06:23:34;;;;;;;10.37;7.93;;;;;;;3.50;77.41;101825.05;1685938;82;21309;-87
2020/12/20 06:26:11;;;;;;;12.43;7.83;;;;;;;3.59;77.17;101828.38;1660032;84;21233;-87
2020/12/20 06:28:40;;;;;;;14.60;9.77;;;;;;;3.58;77.13;101835.06;1669165;85;21263;-84
2020/12/20 06:31:09;;;;;;;14.53;9.30;;;;;;;3.51;77.39;101841.26;1658856;84;22299;-86
2020/12/20 06:33:44;;;;;;;13.50;9.33;;;;;;;3.46;77.52;101842.88;1637900;85;21686;-85
2020/12/20 06:36:14;;;;;;;14.07;9.50;;;;;;;3.43;77.79;101846.22;1640076;86;21592;-87
2020/12/20 06:38:55;;;;;;;14.57;10.60;;;;;;;3.51;77.74;101846.05;1645123;86;21215;-89
2020/12/20 06:41:34;;;;;;;12.57;9.07;;;;;;;3.64;77.29;101852.64;1640279;86;21207;-88
2020/12/20 06:44:13;;;;;;;14.80;10.50;;;;;;;3.65;77.15;101852.99;1628469;88;21192;-85
2020/12/20 06:46:41;;;;;;;15.77;10.47;;;;;;;3.56;77.24;101848.84;1646405;85;21602;-87
2020/12/20 06:49:33;;;;;;;15.00;10.57;;;;;;;3.45;77.51;101850.43;1628797;88;21164;-88
2020/12/20 06:52:27;;;;;;;11.43;8.63;;;;;;;3.48;77.57;101862.09;1640040;85;21215;-90
2020/12/20 06:55:07;;;;;;;17.57;11.07;;;;;;;3.62;77.14;101850.59;1643559;87;21776;-88
2020/12/20 06:57:57;;;;;;;15.87;10.77;;;;;;;3.61;77.10;101851.52;1630304;88;21217;-86
2020/12/20 07:00:54;;;;;;;17.20;12.43;;;;;;;3.55;77.33;101852.44;1623072;88;21213;-93
2020/12/20 07:04:00;;;;;;;15.03;10.67;;;;;;;3.51;77.50;101853.13;1637921;86;21178;-91
2020/12/20 07:06:33;;;;;;;17.30;11.53;;;;;;;3.46;77.77;101849.95;1627844;87;21279;-89
2020/12/20 07:09:11;;;;;;;16.20;10.07;;;;;;;3.54;77.50;101859.48;1614332;87;21191;-91
2020/12/20 07:11:49;;;;;;;14.93;10.37;;;;;;;3.69;76.76;101854.50;1610377;88;21236;-85
2020/12/20 07:14:22;;;;;;;17.50;11.33;;;;;;;3.66;76.39;101852.06;1613755;87;21359;-89
2020/12/20 07:16:53;;;;;;;15.67;10.57;;;;;;;3.59;76.73;101860.50;1632838;86;21769;-87
2020/12/20 07:19:25;;;;;;;14.23;10.63;;;;;;;3.59;76.73;101860.50;1601163;88;22866;-87
2020/12/20 07:22:01;;;;;;;18.67;11.40;;;;;;;3.58;76.93;101862.75;1641991;86;21297;-89
2020/12/20 07:24:32;;;;;;;15.13;11.88;;;;;;;3.62;76.69;101873.00;1650055;85;21192;-90
2020/12/20 07:27:17;;;;;;;13.80;11.10;;;;;;;3.78;76.32;101869.30;1770305;79;23126;-88
2020/12/20 07:30:07;;;;;;;19.10;12.20;;;;;;;3.72;76.05;101872.38;1738438;82;21105;-87
2020/12/20 07:32:43;;;;;;;19.10;14.13;;;;;;;3.61;76.11;101869.14;1734221;79;21104;-87
2020/12/20 07:35:13;;;;;;;21.10;13.43;;;;;;;3.53;76.49;101874.95;1740130;79;21141;-90
2020/12/20 07:37:53;;;;;;;18.30;12.57;;;;;;;3.53;76.69;101872.31;1656865;82;21234;-88
2020/12/20 07:40:27;;;;;;;16.07;11.60;;;;;;;3.61;76.50;101875.25;1608512;86;21210;-91
2020/12/20 07:43:01;;;;;;;14.93;11.77;;;;;;;3.77;75.96;101875.06;1634507;85;21190;-87
2020/12/20 07:45:32;;;;;;;15.85;10.98;;;;;;;3.78;75.92;101877.22;1613896;87;21791;-86
2020/12/20 07:48:00;;;;;;;20.00;14.20;;;;;;;3.74;75.92;101873.94;1647023;85;21241;-86
2020/12/20 07:50:27;;;;;;;18.93;13.03;;;;;;;3.18;75.98;101789.88;1645933;85;21257;-89
2020/12/20 07:52:54;;;;;;;17.00;12.47;;;;;;;3.66;76.10;101873.64;1611609;86;21244;-85
2020/12/20 07:55:24;;;;;;;15.17;11.37;;;;;;;3.64;76.23;101879.02;1623726;87;21815;-89
2020/12/20 07:58:00;;;;;;;17.00;12.37;;;;;;;3.78;75.90;101879.37;1812293;77;23519;-85
2020/12/20 08:00:28;;;;;;;12.80;9.30;;;;;;;3.86;75.46;101879.70;1814021;78;21180;-89
2020/12/20 08:03:07;;;;;;;16.03;12.07;;;;;;;3.88;75.30;101879.12;1814472;78;21163;-86
2020/12/20 08:05:35;;;;;;;17.87;12.82;;;;;;;3.79;75.35;101880.23;1787799;78;21060;-86
2020/12/20 08:08:02;;;;;;;17.00;12.33;;;;;;;3.69;75.66;101874.27;1725724;82;21160;-88
2020/12/20 08:10:31;;;;;;;19.70;14.10;;;;;;;3.65;75.87;101882.00;1703154;83;21176;-91
2020/12/20 08:12:59;;;;;;;20.13;12.67;;;;;;;3.69;75.70;101887.46;1703242;83;21167;-88
2020/12/20 08:15:27;;;;;;;17.30;11.80;;;;;;;3.78;75.35;101887.77;1670858;85;21231;-88
2020/12/20 08:17:54;;;;;;;20.90;14.43;;;;;;;3.79;75.40;101889.47;1688150;83;21667;-89
2020/12/20 08:20:22;;;;;;;19.43;14.23;;;;;;;3.70;75.51;101890.45;1668710;85;21703;-87
2020/12/20 08:22:50;;;;;;;14.77;10.00;;;;;;;3.66;75.66;101891.61;1629193;86;21223;-85
2020/12/20 08:25:21;;;;;;;16.70;11.13;;;;;;;3.63;75.60;101903.68;1694269;83;21194;-87
2020/12/20 08:27:52;;;;;;;16.80;11.50;;;;;;;3.55;75.54;101898.09;1691335;83;21202;-91
2020/12/20 08:30:22;;;;;;;16.30;11.87;;;;;;;3.52;75.39;101902.25;1665531;85;21159;-87
2020/12/20 08:32:51;;;;;;;16.43;12.47;;;;;;;3.55;75.21;101900.73;1695648;81;21159;-87
2020/12/20 08:35:25;;;;;;;16.40;11.93;;;;;;;3.50;75.30;101905.46;1691574;83;21221;-90
2020/12/20 08:37:58;;;;;;;15.63;12.40;;;;;;;3.37;75.78;101899.33;1698710;83;21828;-89
2020/12/20 08:40:56;;;;;;;17.87;12.63;;;;;;;3.34;76.23;101895.61;1796151;78;23091;-91
2020/12/20 08:43:23;;;;;;;17.03;11.97;;;;;;;3.27;76.32;101901.27;1720966;81;21221;-89
2020/12/20 08:45:50;;;;;;;14.43;11.03;;;;;;;3.36;76.20;101905.56;1732826;80;21208;-89
2020/12/20 08:48:29;;;;;;;;;;;;;;;;;;;;;
2020/12/20 08:51:23;;;;;;;16.07;10.03;;;;;;;3.17;75.48;101833.01;1752609;79;22949;-86
2020/12/20 08:53:50;;;;;;;20.87;13.30;;;;;;;3.17;75.31;101865.95;1755962;80;21195;-90
2020/12/20 08:56:17;;;;;;;19.40;12.80;;;;;;;3.35;75.52;101909.97;1686924;83;21553;-90
2020/12/20 08:58:48;;;;;;;16.83;11.77;;;;;;;3.27;75.67;101902.58;1691574;82;22245;-88
2020/12/20 09:01:15;;;;;;;20.13;13.07;;;;;;;3.27;75.76;101910.48;1722485;82;21236;-86
2020/12/20 09:03:47;;;;;;;18.23;13.00;;;;;;;3.39;75.65;101911.94;1715120;82;21208;-89
2020/12/20 09:06:15;;;;;;;16.13;12.37;;;;;;;3.42;75.67;101909.94;1698858;82;21161;-90
2020/12/20 09:09:03;;;;;;;22.43;14.60;;;;;;;3.39;75.66;101901.39;1665878;84;21189;-90
2020/12/20 09:11:32;;;;;;;16.53;12.27;;;;;;;3.35;75.83;101909.14;1691310;82;21768;-90
2020/12/20 09:14:13;;;;;;;16.57;11.33;;;;;;;3.31;75.59;101902.77;1646218;84;21156;-88
2020/12/20 09:16:42;;;;;;;23.47;14.20;;;;;;;3.31;75.27;101905.86;1688750;83;21172;-88
2020/12/20 09:19:12;;;;;;;23.77;15.67;;;;;;;3.32;75.02;101902.29;1695761;83;21217;-91
2020/12/20 09:21:53;;;;;;;22.03;13.90;;;;;;;3.27;75.28;101905.22;1691146;84;21293;-87
2020/12/20 09:24:25;;;;;;;19.97;13.03;;;;;;;3.20;75.39;101905.73;1690737;83;21220;-86
2020/12/20 09:27:01;;;;;;;23.00;14.63;;;;;;;3.05;75.71;101899.68;1701724;83;21189;-91
2020/12/20 09:29:31;;;;;;;25.73;16.83;;;;;;;2.95;76.21;101898.61;1697943;83;21299;-87
2020/12/20 09:32:00;;;;;;;26.77;16.13;;;;;;;2.92;76.43;101906.25;1686811;83;21232;-90
2020/12/20 09:34:33;;;;;;;25.27;16.97;;;;;;;3.00;76.40;101899.16;1682750;84;21258;-90
2020/12/20 09:37:04;;;;;;;22.57;14.70;;;;;;;3.18;76.01;101895.28;1670894;84;21142;-89
2020/12/20 09:39:35;;;;;;;19.77;13.17;;;;;;;3.23;75.98;101906.38;1651093;85;21240;-90
2020/12/20 09:42:02;;;;;;;17.77;11.80;;;;;;;3.20;75.84;101905.28;1627209;85;21178;-89
2020/12/20 09:44:29;;;;;;;20.80;13.83;;;;;;;3.11;75.96;101904.09;1615216;86;22039;-90
2020/12/20 09:46:59;;;;;;;27.60;15.57;;;;;;;3.02;76.19;101902.53;1651714;85;21391;-87
2020/12/20 09:49:32;;;;;;;21.40;15.67;;;;;;;3.08;76.23;101905.59;1638568;85;21267;-87
2020/12/20 09:52:03;;;;;;;24.00;17.40;;;;;;;3.19;76.19;101903.58;1638395;85;21199;-96
2020/12/20 09:54:31;;;;;;;22.07;14.10;;;;;;;3.23;76.18;101893.68;1647939;85;21225;-93
2020/12/20 09:57:02;;;;;;;20.20;14.87;;;;;;;3.21;76.12;101900.84;1622748;85;21254;-87
2020/12/20 09:59:36;;;;;;;24.33;16.43;;;;;;;3.18;76.36;101897.92;1652432;85;21527;-89
2020/12/20 10:02:04;;;;;;;21.30;14.87;;;;;;;3.19;76.40;101902.74;1634343;86;21250;-87
2020/12/20 10:04:34;;;;;;;24.93;15.23;;;;;;;3.23;76.37;101897.15;1645337;85;21733;-86
2020/12/20 10:07:01;;;;;;;27.77;18.53;;;;;;;3.36;76.09;101889.75;1641028;85;21151;-88
2020/12/20 10:09:28;;;;;;;;;;;;;;;3.41;76.14;101891.13;1650799;85;21203;-87
2020/12/20 10:12:12;;;;;;;24.70;16.73;;;;;;;3.45;76.21;101896.56;1649764;85;20268;-87
2020/12/20 10:14:47;;;;;;;28.37;16.70;;;;;;;3.43;76.07;101889.72;1830305;77;23273;-86
2020/12/20 10:17:14;;;;;;;26.30;17.80;;;;;;;3.32;76.24;101893.06;1802605;77;21197;-87
2020/12/20 10:19:44;;;;;;;28.77;18.63;;;;;;;3.30;76.35;101890.53;1808591;77;22183;-88
2020/12/20 10:22:16;;;;;;;36.50;23.37;;;;;;;3.43;76.08;101896.30;1803323;78;21197;-86
2020/12/20 10:24:43;;;;;;;32.87;22.70;;;;;;;3.53;75.68;101888.61;1805017;78;21161;-87
2020/12/20 10:27:11;;;;;;;27.77;17.70;;;;;;;3.56;75.71;101893.66;1812257;77;21624;-86
2020/12/20 10:29:39;;;;;;;28.30;19.87;;;;;;;3.53;75.67;101897.36;1813650;77;21213;-86
2020/12/20 10:32:06;;;;;;;32.40;21.37;;;;;;;3.45;75.65;101898.36;1775294;78;21300;-86
2020/12/20 10:34:33;;;;;;;28.30;19.30;;;;;;;3.36;75.98;101891.91;1809509;78;21196;-89
2020/12/20 10:37:00;;;;;;;27.37;19.33;;;;;;;3.42;76.01;101889.33;1751634;77;21585;-85
2020/12/20 10:39:30;;;;;;;28.70;19.20;;;;;;;3.27;75.66;101844.60;1739575;81;21162;-88
2020/12/20 10:42:07;;;;;;;27.70;18.77;;;;;;;3.58;75.60;101883.40;1744602;79;21320;-87
2020/12/20 10:45:41;;;;;;;26.00;17.23;;;;;;;3.65;75.65;101873.25;1810265;78;21717;-86
2020/12/20 10:48:08;;;;;;;29.77;18.50;;;;;;;3.58;75.35;101883.40;1783910;80;21318;-88
2020/12/20 10:50:36;;;;;;;31.77;18.20;;;;;;;3.51;75.61;101874.21;1781091;79;21195;-89
2020/12/20 10:53:13;;;;;;;27.47;18.30;;;;;;;3.57;75.48;101883.50;1774960;79;21192;-85
2020/12/20 10:55:57;;;;;;;25.60;18.13;;;;;;;3.71;75.16;101880.73;1787337;79;21176;-85
2020/12/20 10:58:26;;;;;;;26.00;18.77;;;;;;;3.76;75.03;101887.86;1717334;83;21650;-86
2020/12/20 11:00:53;;;;;;;24.03;16.57;;;;;;;3.73;74.95;101888.55;1714063;81;21152;-86
2020/12/20 11:03:22;;;;;;;29.87;19.50;;;;;;;3.64;74.90;101889.56;1748063;80;21155;-83
2020/12/20 11:05:50;;;;;;;27.53;18.10;;;;;;;3.55;75.10;101879.64;1691323;81;21170;-86
2020/12/20 11:08:20;;;;;;;28.47;19.80;;;;;;;3.57;75.25;101885.65;1711271;81;21192;-83
2020/12/20 11:10:48;;;;;;;28.87;20.07;;;;;;;3.50;74.94;101866.78;1669322;83;21206;-86
2020/12/20 11:13:29;;;;;;;25.90;17.53;;;;;;;3.74;75.05;101889.77;1749407;80;22748;-84
2020/12/20 11:16:00;;;;;;;28.87;18.90;;;;;;;3.65;75.17;101892.55;1766605;80;21191;-84
2020/12/20 11:18:38;;;;;;;30.43;18.43;;;;;;;3.68;75.20;101885.76;1807559;78;23952;-85
2020/12/20 11:21:05;;;;;;;27.70;20.20;;;;;;;3.63;74.99;101893.12;1719878;82;21251;-86
2020/12/20 11:23:45;;;;;;;;;;;;;;;;;;;;;
2020/12/20 11:27:20;;;;;;;28.87;20.10;;;;;;;3.71;74.88;101884.69;1731608;81;28625;-87
2020/12/20 11:31:00;;;;;;;;;;;;;;;;;;;;;
2020/12/20 12:00:33;;;;;;;35.87;23.83;;;;;;;3.57;75.04;101898.83;1738854;77;21630;-90
2020/12/20 12:03:04;;;;;;;39.07;26.27;;;;;;;3.68;74.74;101902.90;1753249;81;21241;-90
2020/12/20 12:06:06;;;;;;;45.43;30.70;;;;;;;3.73;74.61;101901.73;1756921;79;23790;-93
2020/12/20 12:08:34;;;;;;;42.33;29.70;;;;;;;3.61;74.66;101898.16;1708390;81;21252;-89
2020/12/20 12:11:07;;;;;;;47.37;31.30;;;;;;;3.57;74.91;101902.79;1685752;82;21211;-89
2020/12/20 12:13:53;;;;;;;45.73;31.03;;;;;;;3.62;74.75;101899.38;1759762;79;23088;-89
2020/12/20 12:16:26;;;;;;;54.00;33.07;;;;;;;3.60;74.61;101905.68;1723789;82;21137;-90
2020/12/20 12:18:53;;;;;;;49.33;28.97;;;;;;;3.67;74.33;101906.50;1701831;82;21217;-87